Time;durP1;ratioP1;P1;durP2;ratioP2;P2;SDS_P1;SDS_P2;PMS_P1;PMS_P2;Temp;Humidity;BMP_temperature;BMP_pressure;BME280_temperature;BME280_humidity;BME280_pressure;Samples;Min_cycle;Max_cycle;Signal;HPM_P1;HPM_P2
2023/05/26 00:01:34;;;;;;;15.37;9.40;;;;;;;16.00;75.88;100678.88;4253304;28;21654;-66
2023/05/26 00:04:02;;;;;;;15.43;9.33;;;;;;;15.99;76.16;100692.69;4247724;28;20230;-65
2023/05/26 00:06:31;;;;;;;14.40;9.43;;;;;;;15.90;76.81;100701.94;4262020;28;20370;-66
2023/05/26 00:08:57;;;;;;;13.97;9.67;;;;;;;15.90;77.08;100691.88;4258951;28;20385;-66
2023/05/26 00:11:24;;;;;;;15.57;9.37;;;;;;;15.85;77.50;100694.28;4251822;28;20229;-67
2023/05/26 00:13:51;;;;;;;16.23;10.57;;;;;;;15.74;77.97;100700.06;4258120;28;20264;-65
2023/05/26 00:16:17;;;;;;;16.33;10.13;;;;;;;15.72;78.07;100692.06;4261290;28;20250;-67
2023/05/26 00:18:44;;;;;;;19.13;9.80;;;;;;;15.74;78.05;100700.06;4250731;28;20235;-67
2023/05/26 00:21:11;;;;;;;14.97;10.20;;;;;;;15.68;78.22;100699.75;4250425;28;20603;-66
2023/05/26 00:23:37;;;;;;;16.77;10.03;;;;;;;15.58;78.72;100696.34;4256951;28;20674;-65
2023/05/26 00:26:04;;;;;;;13.43;9.53;;;;;;;15.67;77.95;100705.41;4260048;28;22770;-68
2023/05/26 00:28:30;;;;;;;12.67;8.13;;;;;;;15.61;77.09;100697.88;4245829;28;20259;-67
2023/05/26 00:30:57;;;;;;;14.33;8.40;;;;;;;15.61;77.05;100706.94;4254355;28;20231;-68
2023/05/26 00:33:24;;;;;;;13.03;8.53;;;;;;;15.52;76.92;100706.09;4259706;28;20575;-68
2023/05/26 00:35:50;;;;;;;17.17;8.07;;;;;;;15.48;76.26;100707.47;4256393;28;20306;-66
2023/05/26 00:38:17;;;;;;;10.10;7.10;;;;;;;15.40;74.74;100703.91;4250812;28;20238;-65
2023/05/26 00:40:43;;;;;;;10.47;6.60;;;;;;;15.46;73.67;100704.06;4255368;28;20504;-66
2023/05/26 00:43:10;;;;;;;10.87;6.43;;;;;;;15.48;72.44;100696.56;4256372;28;20864;-67
2023/05/26 00:45:36;;;;;;;9.97;5.53;;;;;;;15.51;72.04;100706.25;4251742;28;20269;-65
2023/05/26 00:48:04;;;;;;;10.83;6.10;;;;;;;15.43;72.18;100693.50;4257176;28;26082;-65
2023/05/26 00:50:31;;;;;;;14.37;5.80;;;;;;;15.42;71.82;100699.13;4257523;28;20269;-67
2023/05/26 00:52:59;;;;;;;13.17;5.47;;;;;;;15.43;71.00;100695.38;4255758;28;21749;-65
2023/05/26 00:55:28;;;;;;;11.03;5.60;;;;;;;15.41;71.10;100695.53;4240540;28;20240;-66
2023/05/26 00:57:56;;;;;;;12.87;5.77;;;;;;;15.33;71.33;100696.38;4257273;28;20238;-68
2023/05/26 01:00:22;;;;;;;13.80;6.03;;;;;;;15.31;71.31;100705.78;4251176;28;20289;-66
2023/05/26 01:02:50;;;;;;;13.87;5.40;;;;;;;15.28;71.69;100706.97;4252719;28;20521;-65
2023/05/26 01:05:17;;;;;;;8.50;5.10;;;;;;;15.34;71.23;100708.16;4252427;28;20281;-66
2023/05/26 01:07:44;;;;;;;16.23;5.80;;;;;;;15.21;71.73;100704.09;4248650;28;20388;-65
2023/05/26 01:10:10;;;;;;;11.47;5.40;;;;;;;15.27;71.29;100701.72;4256378;28;21867;-67
2023/05/26 01:12:51;;;;;;;10.03;5.00;;;;;;;15.27;70.89;100701.72;4267280;28;20245;-66
2023/05/26 01:15:22;;;;;;;8.40;5.17;;;;;;;15.15;71.28;100699.31;4244539;28;20297;-67
2023/05/26 01:17:55;;;;;;;15.37;5.57;;;;;;;15.13;71.48;100701.38;4247291;28;20230;-65
2023/05/26 01:20:26;;;;;;;8.73;5.20;;;;;;;15.02;71.87;100710.75;4242881;28;20950;-66
2023/05/26 01:23:06;;;;;;;14.83;5.80;;;;;;;15.00;72.00;100698.28;4246484;28;20280;-66
2023/05/26 01:25:44;;;;;;;8.77;5.27;;;;;;;15.05;71.75;100698.66;4244013;28;20227;-65
2023/05/26 01:28:16;;;;;;;14.13;5.73;;;;;;;14.89;72.45;100700.34;4229497;28;21944;-66
2023/05/26 01:30:44;;;;;;;12.60;5.60;;;;;;;14.80;72.94;100690.44;4243872;28;20230;-67
2023/05/26 01:33:11;;;;;;;13.10;5.63;;;;;;;14.74;73.41;100696.59;4234692;28;20452;-68
2023/05/26 01:35:38;;;;;;;10.43;5.80;;;;;;;14.72;73.47;100701.34;4250843;28;20230;-67
2023/05/26 01:38:05;;;;;;;9.80;6.07;;;;;;;14.72;73.52;100701.34;4249679;28;20296;-68
2023/05/26 01:40:32;;;;;;;11.73;5.80;;;;;;;14.66;73.88;100702.84;4248147;28;21174;-66
2023/05/26 01:43:19;;;;;;;12.57;6.03;;;;;;;14.60;74.38;100702.66;4249715;28;21423;-67
2023/05/26 01:45:55;;;;;;;11.70;5.37;;;;;;;14.65;73.92;100698.38;4236404;28;20243;-68
2023/05/26 01:48:22;;;;;;;9.10;5.10;;;;;;;14.70;73.27;100706.09;4246758;28;20260;-64
2023/05/26 01:50:55;;;;;;;11.53;6.17;;;;;;;14.65;73.25;100700.28;4242204;28;20232;-66
2023/05/26 01:53:26;;;;;;;12.77;5.70;;;;;;;14.52;73.70;100712.53;4255890;28;20229;-67
2023/05/26 01:55:56;;;;;;;13.50;5.97;;;;;;;14.42;73.91;100700.91;4244166;28;20287;-66
2023/05/26 01:58:23;;;;;;;13.13;5.80;;;;;;;14.54;73.33;100704.19;4237939;28;21800;-66
2023/05/26 02:00:50;;;;;;;8.77;5.57;;;;;;;14.43;73.87;100705.34;4244344;28;20258;-67
2023/05/26 02:03:17;;;;;;;13.83;5.93;;;;;;;14.47;73.43;100712.16;4234633;28;20562;-69
2023/05/26 02:05:44;;;;;;;14.87;6.07;;;;;;;14.44;73.75;100709.78;4244978;28;20255;-67
2023/05/26 02:08:12;;;;;;;14.40;5.20;;;;;;;14.48;73.81;100715.75;4222262;28;20338;-66
2023/05/26 02:10:39;;;;;;;10.67;5.50;;;;;;;14.50;73.07;100708.25;4241071;28;25403;-66
2023/05/26 02:13:06;;;;;;;7.33;5.33;;;;;;;14.49;73.36;100721.00;4240428;28;20333;-66
2023/05/26 02:15:33;;;;;;;10.40;5.10;;;;;;;14.61;72.85;100721.56;4227188;28;20437;-66
2023/05/26 02:18:00;;;;;;;11.60;5.47;;;;;;;14.64;72.67;100721.25;4222665;28;20845;-66
2023/05/26 02:20:27;;;;;;;13.87;5.37;;;;;;;14.67;72.46;100720.06;4239369;28;20645;-68
2023/05/26 02:22:53;;;;;;;9.43;5.73;;;;;;;14.65;71.97;100709.28;4234788;28;20631;-66
2023/05/26 02:25:20;;;;;;;13.20;5.37;;;;;;;14.72;72.23;100721.28;4217723;28;20306;-69
2023/05/26 02:27:46;;;;;;;10.83;4.90;;;;;;;14.63;72.47;100722.25;4236168;28;20236;-68
2023/05/26 02:30:13;;;;;;;13.20;4.83;;;;;;;14.67;72.02;100726.38;4236605;28;20243;-67
2023/05/26 02:32:40;;;;;;;10.87;5.23;;;;;;;14.76;71.77;100712.75;4222192;28;25997;-66
2023/05/26 02:35:07;;;;;;;8.50;5.23;;;;;;;14.80;71.83;100716.88;4232392;28;20227;-66
2023/05/26 02:37:34;;;;;;;10.00;5.43;;;;;;;14.88;71.60;100722.28;4210419;28;20314;-67
2023/05/26 02:40:01;;;;;;;9.37;5.37;;;;;;;14.94;71.73;100718.94;4226304;28;20246;-66
2023/05/26 02:42:28;;;;;;;10.83;6.03;;;;;;;14.73;72.54;100693.00;4225799;28;20245;-68
2023/05/26 02:44:54;;;;;;;9.47;5.60;;;;;;;14.73;73.74;100705.78;4224502;28;23945;-66
2023/05/26 02:47:21;;;;;;;9.93;5.90;;;;;;;14.77;73.22;100712.56;4218992;28;21893;-66
2023/05/26 02:49:48;;;;;;;15.03;5.93;;;;;;;14.68;72.93;100709.00;4237705;28;23779;-66
2023/05/26 02:52:15;;;;;;;11.63;5.40;;;;;;;14.72;72.48;100713.09;4253929;28;20353;-66
2023/05/26 02:54:41;;;;;;;11.40;5.47;;;;;;;14.66;73.12;100721.09;4242143;28;20307;-68
2023/05/26 02:57:08;;;;;;;8.90;5.20;;;;;;;14.77;72.92;100718.03;4239181;28;20238;-68
2023/05/26 02:59:35;;;;;;;10.50;5.77;;;;;;;14.86;73.55;100717.03;4248519;28;22595;-66
2023/05/26 03:02:01;;;;;;;11.10;4.93;;;;;;;14.86;72.70;100718.91;4235185;28;20233;-68
2023/05/26 03:04:28;;;;;;;9.43;5.07;;;;;;;14.87;72.69;100721.47;4217433;28;20227;-68
2023/05/26 03:06:55;;;;;;;8.97;5.07;;;;;;;15.06;72.03;100730.34;4242514;28;21661;-66
2023/05/26 03:09:22;;;;;;;11.63;5.13;;;;;;;15.11;71.60;100725.22;4283219;28;20238;-66
2023/05/26 03:11:48;;;;;;;10.73;4.50;;;;;;;15.17;71.71;100724.53;4272166;28;20291;-67
2023/05/26 03:14:15;;;;;;;15.37;5.67;;;;;;;15.27;71.77;100724.38;4264536;28;20230;-66
2023/05/26 03:16:43;;;;;;;10.23;5.53;;;;;;;15.33;72.18;100723.66;4265522;28;26316;-68
2023/05/26 03:19:10;;;;;;;13.17;5.37;;;;;;;15.36;72.51;100728.78;4253566;28;20222;-66
2023/05/26 03:21:37;;;;;;;22.10;6.87;;;;;;;15.38;73.75;100723.16;4246312;28;20233;-67
2023/05/26 03:24:15;;;;;;;14.50;6.00;;;;;;;15.48;72.93;100717.53;4254218;28;20633;-65
2023/05/26 03:26:42;;;;;;;8.57;5.40;;;;;;;15.59;72.81;100717.16;4231017;28;25973;-67
2023/05/26 03:29:09;;;;;;;12.27;6.40;;;;;;;15.74;72.92;100730.97;4251510;28;20293;-67
2023/05/26 03:31:35;;;;;;;14.40;6.37;;;;;;;15.82;72.65;100733.66;4245248;28;20234;-67
2023/05/26 03:34:02;;;;;;;11.77;6.67;;;;;;;15.77;72.97;100729.75;4253710;28;20253;-69
2023/05/26 03:36:29;;;;;;;11.73;6.77;;;;;;;15.80;73.15;100735.72;4249151;28;20239;-66
2023/05/26 03:38:55;;;;;;;13.70;6.80;;;;;;;15.63;73.23;100729.47;4260353;28;20237;-66
2023/05/26 03:41:22;;;;;;;14.37;7.07;;;;;;;15.60;73.68;100732.53;4255109;28;20255;-66
2023/05/26 03:43:48;;;;;;;14.93;7.33;;;;;;;15.56;73.95;100730.31;4254810;28;20298;-65
2023/05/26 03:46:15;;;;;;;14.77;6.80;;;;;;;15.74;73.33;100732.81;4251217;28;20241;-66
2023/05/26 03:48:42;;;;;;;13.10;7.53;;;;;;;15.47;73.88;100721.28;4251521;28;20237;-66
2023/05/26 03:51:08;;;;;;;14.27;7.87;;;;;;;15.59;73.55;100730.81;4247467;28;20284;-66
2023/05/26 03:53:35;;;;;;;12.97;8.07;;;;;;;15.52;73.68;100733.38;4248281;28;20238;-67
2023/05/26 03:56:01;;;;;;;11.00;7.77;;;;;;;15.83;72.99;100737.28;4248412;28;20350;-67
2023/05/26 03:58:28;;;;;;;14.47;8.40;;;;;;;15.94;72.59;100730.59;4253999;28;20234;-68
2023/05/26 04:00:55;;;;;;;13.40;7.63;;;;;;;15.97;71.66;100733.81;4250497;28;20274;-68
2023/05/26 04:03:22;;;;;;;13.73;7.43;;;;;;;15.77;72.13;100730.59;4248249;28;20597;-66
2023/05/26 04:05:49;;;;;;;13.50;6.57;;;;;;;16.09;71.53;100733.44;4249099;28;20519;-66
2023/05/26 04:08:16;;;;;;;15.37;6.50;;;;;;;16.49;69.54;100734.28;4258928;28;20581;-69
2023/05/26 04:10:43;;;;;;;10.27;6.50;;;;;;;16.64;69.08;100743.41;4248234;28;20280;-67
2023/05/26 04:13:12;;;;;;;9.63;6.17;;;;;;;16.59;68.09;100742.25;4245971;28;26610;-66
2023/05/26 04:15:38;;;;;;;13.97;6.90;;;;;;;16.55;67.92;100744.47;4248506;28;20887;-66
2023/05/26 04:18:05;;;;;;;10.63;6.33;;;;;;;16.92;66.67;100748.38;4235823;28;20300;-69
2023/05/26 04:20:32;;;;;;;11.07;5.80;;;;;;;17.01;65.90;100749.19;4254957;28;20228;-67
2023/05/26 04:22:58;;;;;;;15.10;6.10;;;;;;;16.87;65.97;100752.69;4255418;28;20227;-67
2023/05/26 04:25:25;;;;;;;12.70;6.03;;;;;;;16.84;65.38;100751.16;4244461;28;20233;-67
2023/05/26 04:27:57;;;;;;;14.27;6.33;;;;;;;16.74;66.02;100751.38;4249744;28;22010;-66
2023/05/26 04:30:24;;;;;;;12.80;7.50;;;;;;;17.03;65.69;100752.56;4259242;28;20238;-66
2023/05/26 04:32:53;;;;;;;11.67;6.30;;;;;;;17.32;64.67;100745.53;4259566;28;21902;-69
2023/05/26 04:35:20;;;;;;;13.40;6.27;;;;;;;17.06;65.56;100743.19;4250813;28;20249;-68
2023/05/26 04:37:48;;;;;;;11.37;5.30;;;;;;;17.39;64.41;100743.75;4256138;28;20237;-69
2023/05/26 04:40:14;;;;;;;11.13;5.37;;;;;;;17.28;63.82;100744.19;4258559;28;20597;-67
2023/05/26 04:42:43;;;;;;;13.37;6.00;;;;;;;17.24;64.07;100732.75;4254686;28;20293;-68
2023/05/26 04:45:10;;;;;;;10.33;5.70;;;;;;;16.91;64.93;100733.00;4250946;28;20946;-67
2023/05/26 04:47:40;;;;;;;11.50;5.83;;;;;;;16.40;66.15;100749.00;4255876;28;20289;-66
2023/05/26 04:50:07;;;;;;;14.87;5.80;;;;;;;16.55;65.59;100751.84;4254961;28;20448;-65
2023/05/26 04:52:33;;;;;;;19.53;6.30;;;;;;;16.91;63.95;100748.53;4238308;28;20227;-67
2023/05/26 04:55:00;;;;;;;11.03;5.63;;;;;;;16.87;63.71;100748.06;4255114;28;20236;-68
2023/05/26 04:57:27;;;;;;;17.80;5.20;;;;;;;17.22;63.30;100753.97;4263443;28;22874;-67
2023/05/26 04:59:53;;;;;;;20.27;8.27;;;;;;;17.30;62.29;100742.13;4254147;28;20318;-68
2023/05/26 05:02:20;;;;;;;10.73;5.70;;;;;;;17.42;61.77;100743.38;4233562;28;20238;-69
2023/05/26 05:04:47;;;;;;;13.63;5.30;;;;;;;17.82;61.23;100748.66;4264648;28;20230;-66
2023/05/26 05:07:14;;;;;;;11.63;4.80;;;;;;;17.96;60.30;100748.88;4249139;28;20325;-66
2023/05/26 05:09:41;;;;;;;13.97;4.90;;;;;;;18.05;59.88;100756.81;4247906;28;20221;-65
2023/05/26 05:12:08;;;;;;;13.93;4.73;;;;;;;18.20;58.11;100748.56;4251003;28;20232;-67
2023/05/26 05:14:34;;;;;;;8.53;4.23;;;;;;;17.83;59.81;100747.59;4259711;28;20222;-66
2023/05/26 05:17:01;;;;;;;13.47;4.47;;;;;;;17.87;59.65;100743.44;4241547;28;20254;-66
2023/05/26 05:19:27;;;;;;;9.23;4.57;;;;;;;17.74;59.57;100744.09;4256288;28;20284;-67
2023/05/26 05:21:54;;;;;;;11.73;4.57;;;;;;;17.94;59.80;100742.69;4251800;28;21773;-65
2023/05/26 05:24:20;;;;;;;14.20;4.13;;;;;;;18.14;57.56;100745.75;4250817;28;20305;-66
2023/05/26 05:26:47;;;;;;;8.67;4.20;;;;;;;18.37;58.26;100756.56;4260817;28;22339;-65
2023/05/26 05:29:13;;;;;;;10.50;4.90;;;;;;;17.97;58.30;100743.19;4262842;28;20231;-66
2023/05/26 05:31:40;;;;;;;9.33;4.17;;;;;;;17.79;59.55;100749.00;4240740;28;20277;-44
2023/05/26 05:34:07;;;;;;;9.37;4.10;;;;;;;17.77;59.17;100745.59;4246028;28;20230;-49
2023/05/26 05:36:33;;;;;;;9.07;4.30;;;;;;;17.67;59.91;100761.47;4252698;28;21789;-44
2023/05/26 05:39:00;;;;;;;8.80;4.63;;;;;;;18.36;58.44;100761.22;4249796;28;20234;-73
2023/05/26 05:41:26;;;;;;;8.83;4.57;;;;;;;18.07;59.15;100763.97;4246794;28;22854;-69
2023/05/26 05:43:56;;;;;;;11.90;5.10;;;;;;;18.06;59.60;100768.59;4259085;28;22077;-70
2023/05/26 05:46:26;;;;;;;8.83;4.33;;;;;;;17.93;59.98;100773.84;4254916;28;20301;-69
2023/05/26 05:48:52;;;;;;;12.10;4.67;;;;;;;17.71;60.41;100774.56;4255376;28;23542;-69
2023/05/26 05:51:19;;;;;;;13.03;4.10;;;;;;;18.12;59.02;100770.59;4256404;28;22374;-68
2023/05/26 05:53:45;;;;;;;10.90;4.63;;;;;;;17.88;60.53;100761.59;4246920;28;20232;-68
2023/05/26 05:56:12;;;;;;;9.67;4.43;;;;;;;18.60;58.22;100769.31;4242299;28;20237;-68
2023/05/26 05:58:39;;;;;;;11.47;5.03;;;;;;;19.15;57.06;100769.72;4256201;28;20246;-68
2023/05/26 06:01:06;;;;;;;9.77;5.10;;;;;;;19.66;55.21;100765.94;4287689;28;20383;-68
2023/05/26 06:03:33;;;;;;;10.00;4.50;;;;;;;19.88;54.52;100771.41;4274587;28;22830;-72
2023/05/26 06:06:00;;;;;;;8.50;4.20;;;;;;;19.38;55.55;100769.53;4268643;28;20257;-70
2023/05/26 06:08:27;;;;;;;14.20;4.23;;;;;;;20.56;52.77;100767.97;4256952;28;21403;-68
2023/05/26 06:10:53;;;;;;;14.73;4.77;;;;;;;20.29;52.65;100761.50;4273182;28;22595;-69
2023/05/26 06:13:20;;;;;;;11.37;4.17;;;;;;;22.18;48.85;100764.31;4258233;28;20250;-70
2023/05/26 06:15:47;;;;;;;9.77;4.23;;;;;;;23.48;45.43;100758.75;4277109;28;20245;-69
2023/05/26 06:18:13;;;;;;;9.10;3.80;;;;;;;23.89;42.74;100755.41;4270288;28;20303;-71
2023/05/26 06:20:40;;;;;;;6.90;4.00;;;;;;;22.68;45.42;100757.34;4255364;28;20311;-70
2023/05/26 06:23:09;;;;;;;8.87;4.00;;;;;;;22.97;46.13;100769.72;4267017;28;20234;-67
2023/05/26 06:25:36;;;;;;;9.03;4.03;;;;;;;24.25;42.49;100761.22;4256513;28;21035;-68
2023/05/26 06:28:03;;;;;;;10.15;4.22;;;;;;;24.30;42.26;100761.38;4252124;28;20230;-68
2023/05/26 06:30:29;;;;;;;9.90;3.70;;;;;;;24.13;42.01;100769.44;4264811;28;20238;-68
2023/05/26 06:32:56;;;;;;;8.93;3.50;;;;;;;23.48;43.74;100767.06;4269778;28;21233;-66
2023/05/26 06:35:23;;;;;;;8.87;3.23;;;;;;;25.40;39.99;100757.78;4265970;28;20227;-70
2023/05/26 06:37:50;;;;;;;10.83;3.33;;;;;;;24.95;39.87;100761.84;4244681;28;20836;-69
2023/05/26 06:40:17;;;;;;;11.90;3.93;;;;;;;25.24;39.33;100759.25;4244010;28;20460;-69
2023/05/26 06:42:43;;;;;;;10.82;3.88;;;;;;;25.33;38.98;100765.31;4255476;28;20368;-68
2023/05/26 06:45:10;;;;;;;17.95;3.47;;;;;;;26.98;36.09;100771.81;4259886;28;20229;-68
2023/05/26 06:47:36;;;;;;;6.93;3.13;;;;;;;28.24;34.73;100766.09;4241208;28;20253;-68
2023/05/26 06:50:04;;;;;;;11.07;3.72;;;;;;;28.33;34.08;100769.25;4249289;28;20241;-69
2023/05/26 06:52:30;;;;;;;7.80;3.30;;;;;;;27.30;35.07;100768.50;4248443;28;21710;-67
2023/05/26 06:54:57;;;;;;;11.35;3.78;;;;;;;26.39;36.64;100768.13;4254388;28;20245;-67
2023/05/26 06:57:24;;;;;;;7.20;3.45;;;;;;;27.65;34.80;100767.44;4249380;28;20315;-68
2023/05/26 06:59:50;;;;;;;9.65;3.67;;;;;;;25.89;37.49;100779.75;4255293;28;20269;-70
2023/05/26 07:02:17;;;;;;;8.93;3.13;;;;;;;26.99;36.21;100777.13;4256796;28;20232;-72
2023/05/26 07:04:44;;;;;;;7.15;3.25;;;;;;;27.93;34.68;100771.19;4253756;28;20296;-72
2023/05/26 07:07:11;;;;;;;10.07;4.10;;;;;;;28.58;34.13;100777.94;4260609;28;20634;-69
2023/05/26 07:09:38;;;;;;;10.48;3.47;;;;;;;29.28;32.38;100770.91;4232646;28;22097;-70
2023/05/26 07:12:06;;;;;;;7.72;3.92;;;;;;;26.54;37.57;100780.63;4251873;28;21534;-68
2023/05/26 07:14:32;;;;;;;8.10;3.78;;;;;;;24.89;39.61;100779.41;4246905;28;20313;-67
2023/05/26 07:16:59;;;;;;;14.15;4.05;;;;;;;25.13;40.06;100781.19;4255720;28;20308;-66
2023/05/26 07:19:25;;;;;;;8.85;4.57;;;;;;;26.90;36.65;100784.16;4253559;28;21747;-75
2023/05/26 07:21:52;;;;;;;8.43;4.00;;;;;;;28.24;34.46;100775.28;4243151;28;20262;-68
2023/05/26 07:24:19;;;;;;;8.40;3.20;;;;;;;29.19;32.79;100768.59;4257622;28;20261;-68
2023/05/26 07:26:45;;;;;;;9.00;3.90;;;;;;;27.32;36.43;100772.72;4244385;28;20243;-68
2023/05/26 07:29:12;;;;;;;7.22;4.03;;;;;;;25.57;40.60;100780.91;4253560;28;20507;-67
2023/05/26 07:31:39;;;;;;;11.57;4.80;;;;;;;25.09;41.34;100770.81;4241264;28;20222;-66
2023/05/26 07:34:06;;;;;;;11.80;4.57;;;;;;;24.48;43.11;100771.56;4256904;28;22865;-68
2023/05/26 07:36:34;;;;;;;17.67;4.97;;;;;;;25.80;40.43;100773.69;4247284;28;20446;-66
2023/05/26 07:39:01;;;;;;;9.57;4.40;;;;;;;25.12;41.82;100778.63;4258672;28;25654;-67
2023/05/26 07:41:27;;;;;;;10.75;3.90;;;;;;;23.65;43.93;100776.47;4250256;28;20242;-68
2023/05/26 07:43:54;;;;;;;9.33;4.00;;;;;;;22.25;47.83;100780.81;4264267;28;21305;-69
2023/05/26 07:46:20;;;;;;;15.83;4.60;;;;;;;22.03;49.17;100783.03;4254634;28;20244;-66
2023/05/26 07:48:48;;;;;;;11.93;4.40;;;;;;;21.30;49.60;100779.19;4273812;28;25611;-67
2023/05/26 07:51:15;;;;;;;10.43;4.40;;;;;;;21.28;50.67;100773.03;4258367;28;20234;-69
2023/05/26 07:53:41;;;;;;;15.40;5.97;;;;;;;22.05;49.16;100787.25;4266223;28;20625;-71
2023/05/26 07:56:08;;;;;;;14.70;5.20;;;;;;;22.40;48.58;100781.44;4256489;28;20579;-68
2023/05/26 07:58:37;;;;;;;8.90;4.53;;;;;;;22.00;48.65;100784.31;4248217;28;20644;-67
2023/05/26 08:01:03;;;;;;;11.17;4.80;;;;;;;21.99;49.03;100783.44;4256812;28;20658;-65
2023/05/26 08:03:30;;;;;;;7.27;4.10;;;;;;;21.84;49.80;100780.94;4268122;28;20233;-66
2023/05/26 08:05:57;;;;;;;13.30;4.53;;;;;;;22.05;48.28;100780.91;4250829;28;21102;-68
2023/05/26 08:08:33;;;;;;;10.90;4.60;;;;;;;22.56;48.87;100784.78;4258136;28;20337;-65
2023/05/26 08:10:59;;;;;;;11.00;5.80;;;;;;;22.53;47.40;100774.19;4263422;28;20230;-68
2023/05/26 08:13:26;;;;;;;15.07;6.13;;;;;;;21.71;50.11;100783.72;4261475;28;22679;-66
2023/05/26 08:15:52;;;;;;;14.90;5.67;;;;;;;21.12;52.59;100790.81;4247597;28;20277;-66
2023/05/26 08:18:19;;;;;;;12.13;5.90;;;;;;;20.81;52.72;100776.53;4259268;28;20230;-65
2023/05/26 08:20:46;;;;;;;12.90;5.57;;;;;;;21.38;51.75;100790.00;4239800;28;20651;-55
2023/05/26 08:23:12;;;;;;;10.83;5.10;;;;;;;21.30;52.71;100781.94;4257086;28;22408;-61
2023/05/26 08:25:40;;;;;;;12.57;5.00;;;;;;;20.95;52.78;100787.63;4245155;28;20225;-69
2023/05/26 08:28:06;;;;;;;12.40;5.00;;;;;;;20.42;53.70;100789.09;4266134;28;20237;-67
2023/05/26 08:30:33;;;;;;;15.07;5.40;;;;;;;20.38;53.79;100787.78;4276729;28;20249;-68
2023/05/26 08:33:00;;;;;;;13.17;5.37;;;;;;;20.66;53.99;100779.44;4258173;28;20234;-69
2023/05/26 08:35:28;;;;;;;8.97;5.37;;;;;;;21.44;51.68;100771.81;4284224;28;20241;-67
2023/05/26 08:37:55;;;;;;;7.80;4.60;;;;;;;21.51;52.49;100786.44;4308977;28;20629;-69
2023/05/26 08:40:21;;;;;;;12.90;4.73;;;;;;;21.42;50.60;100769.25;4258712;28;20288;-68
2023/05/26 08:42:51;;;;;;;11.27;5.27;;;;;;;20.78;52.56;100774.22;4268171;28;21428;-70
2023/05/26 08:45:19;;;;;;;11.03;4.93;;;;;;;20.69;52.92;100775.44;4257087;28;21781;-71
2023/05/26 08:47:47;;;;;;;12.23;4.50;;;;;;;20.56;53.65;100773.47;4256357;28;20237;-74
2023/05/26 08:50:19;;;;;;;11.87;4.60;;;;;;;21.12;50.62;100771.56;4242815;28;22891;-78
2023/05/26 08:52:47;;;;;;;11.40;4.30;;;;;;;21.13;50.12;100781.50;4248787;28;25952;-67
2023/05/26 08:55:32;;;;;;;9.80;4.87;;;;;;;20.36;53.47;100779.75;4251476;28;21626;-74
2023/05/26 08:57:59;;;;;;;13.70;4.83;;;;;;;20.29;52.76;100780.75;4236642;28;22258;-65
2023/05/26 09:00:30;;;;;;;9.67;4.67;;;;;;;20.62;51.92;100778.16;4257775;28;20253;-69
2023/05/26 09:02:57;;;;;;;10.87;4.43;;;;;;;20.31;53.20;100782.25;4244479;28;20741;-69
2023/05/26 09:05:24;;;;;;;17.40;4.33;;;;;;;20.19;53.17;100781.13;4249668;28;20239;-64
2023/05/26 09:07:50;;;;;;;12.10;3.97;;;;;;;20.31;50.94;100770.41;4244763;28;20299;-70
2023/05/26 09:10:29;;;;;;;12.90;3.87;;;;;;;20.32;50.69;100783.94;4253788;28;20490;-72
2023/05/26 09:13:03;;;;;;;10.23;4.50;;;;;;;20.16;51.58;100778.78;4249236;28;20362;-74
2023/05/26 09:15:30;;;;;;;9.63;3.87;;;;;;;20.42;50.16;100781.66;4239689;28;20316;-73
2023/05/26 09:18:08;;;;;;;8.67;3.80;;;;;;;20.26;51.59;100782.88;4262329;28;20237;-69
2023/05/26 09:20:44;;;;;;;10.97;4.00;;;;;;;20.36;51.38;100777.00;4258304;28;20241;-69
2023/05/26 09:23:13;;;;;;;11.43;3.90;;;;;;;19.87;52.40;100776.06;4226854;28;20301;-70
2023/05/26 09:25:41;;;;;;;12.40;4.90;;;;;;;19.72;53.08;100783.53;4256588;28;21162;-71
2023/05/26 09:28:10;;;;;;;11.60;4.43;;;;;;;19.73;52.75;100769.59;4260649;28;20249;-75
2023/05/26 09:30:41;;;;;;;10.13;4.40;;;;;;;19.97;51.34;100764.72;4264717;28;20307;-71
2023/05/26 09:33:18;;;;;;;12.67;4.10;;;;;;;19.94;51.94;100763.22;4222189;28;20242;-70
2023/05/26 09:35:46;;;;;;;11.10;4.50;;;;;;;19.83;52.49;100771.16;4252169;28;20539;-72
2023/05/26 09:38:16;;;;;;;10.00;4.03;;;;;;;19.88;51.06;100775.03;4242259;28;20230;-71
2023/05/26 09:40:46;;;;;;;12.67;4.30;;;;;;;19.67;52.98;100775.06;4254403;28;20253;-72
2023/05/26 09:43:13;;;;;;;14.33;4.00;;;;;;;19.71;52.73;100773.59;4239982;28;20366;-70
2023/05/26 09:45:40;;;;;;;12.50;3.90;;;;;;;19.76;50.87;100776.56;4236361;28;21095;-71
2023/05/26 09:48:08;;;;;;;10.10;3.97;;;;;;;20.25;50.59;100772.06;4233189;28;20235;-73
2023/05/26 09:50:36;;;;;;;9.13;4.13;;;;;;;20.38;50.98;100780.41;4281322;28;20302;-73
2023/05/26 09:53:05;;;;;;;9.57;3.87;;;;;;;20.11;51.18;100777.47;4253615;28;22154;-74
2023/05/26 09:55:33;;;;;;;11.37;4.20;;;;;;;20.17;50.54;100774.97;4238342;28;21851;-72
2023/05/26 09:58:04;;;;;;;10.47;3.77;;;;;;;20.02;51.33;100769.59;4252734;28;20260;-74
2023/05/26 10:00:33;;;;;;;11.53;4.17;;;;;;;20.13;50.35;100766.28;4263952;28;20311;-72
2023/05/26 10:03:04;;;;;;;13.57;4.77;;;;;;;19.92;51.31;100772.72;4249790;28;20844;-74
2023/05/26 10:05:36;;;;;;;7.80;3.87;;;;;;;20.00;49.60;100766.22;4230024;28;20237;-72
2023/05/26 10:08:05;;;;;;;13.70;3.93;;;;;;;19.79;50.57;100770.69;4263162;28;20706;-72
2023/05/26 10:10:33;;;;;;;14.60;3.60;;;;;;;20.06;49.96;100762.66;4245585;28;20235;-72
2023/05/26 10:13:01;;;;;;;10.77;3.97;;;;;;;20.68;48.39;100768.22;4223045;28;20326;-72
2023/05/26 10:15:28;;;;;;;7.97;3.40;;;;;;;20.00;49.91;100768.97;4260367;28;20226;-72
2023/05/26 10:17:56;;;;;;;13.53;4.23;;;;;;;20.59;48.77;100771.16;4256388;28;20267;-73
2023/05/26 10:20:24;;;;;;;8.17;3.87;;;;;;;21.14;46.69;100759.28;4243120;28;20238;-70
2023/05/26 10:23:04;;;;;;;9.50;3.90;;;;;;;21.46;47.55;100766.91;4227127;28;20235;-73
2023/05/26 10:25:49;;;;;;;14.00;3.63;;;;;;;20.92;45.28;100768.75;4232351;28;20236;-72
2023/05/26 10:28:34;;;;;;;11.33;3.50;;;;;;;20.81;45.58;100771.03;4264505;28;20240;-73
2023/05/26 10:31:01;;;;;;;14.90;3.77;;;;;;;21.01;45.68;100762.00;4255711;28;20234;-73
2023/05/26 10:33:44;;;;;;;14.33;3.90;;;;;;;21.01;45.53;100767.50;4245625;28;20234;-71
2023/05/26 10:36:16;;;;;;;9.63;3.30;;;;;;;21.09;45.27;100761.81;4274004;28;20247;-73
2023/05/26 10:38:44;;;;;;;10.90;3.63;;;;;;;21.27;44.50;100761.19;4262839;28;20245;-72
2023/05/26 10:41:12;;;;;;;13.63;3.70;;;;;;;21.40;43.21;100756.75;4248292;28;20229;-71
2023/05/26 10:43:39;;;;;;;10.07;3.60;;;;;;;21.38;44.06;100754.22;4243318;28;20231;-70
2023/05/26 10:46:06;;;;;;;9.37;3.57;;;;;;;21.82;43.10;100755.47;4248750;28;20584;-71
2023/05/26 10:48:35;;;;;;;8.20;3.23;;;;;;;22.02;41.42;100760.09;4255405;28;20235;-72
2023/05/26 10:51:09;;;;;;;11.20;3.33;;;;;;;21.99;41.20;100755.88;4230721;28;21741;-71
2023/05/26 10:53:41;;;;;;;8.97;3.17;;;;;;;21.79;43.03;100760.56;4248114;28;22444;-71
2023/05/26 10:56:08;;;;;;;9.90;3.20;;;;;;;21.47;43.73;100750.19;4256304;28;20351;-71
2023/05/26 10:58:47;;;;;;;14.60;3.60;;;;;;;21.37;42.36;100760.78;4249673;28;21789;-73
2023/05/26 11:01:16;;;;;;;11.07;3.50;;;;;;;21.47;42.17;100755.69;4223039;28;20237;-72
2023/05/26 11:03:46;;;;;;;10.53;3.53;;;;;;;21.76;43.21;100758.25;4239805;28;20297;-75
2023/05/26 11:06:15;;;;;;;13.23;4.23;;;;;;;21.74;44.22;100754.88;4242355;28;20309;-71
2023/05/26 11:08:49;;;;;;;11.73;3.63;;;;;;;21.81;42.04;100751.03;4254071;28;20231;-70
2023/05/26 11:11:29;;;;;;;14.27;3.80;;;;;;;21.44;42.00;100750.59;4237922;28;20242;-73
2023/05/26 11:14:04;;;;;;;11.30;3.33;;;;;;;21.41;42.13;100747.44;4262950;28;21952;-73
2023/05/26 11:16:37;;;;;;;11.30;3.10;;;;;;;21.42;42.59;100743.63;4247143;28;20284;-73
2023/05/26 11:19:06;;;;;;;12.60;3.27;;;;;;;21.38;42.53;100741.28;4268911;28;20230;-73
2023/05/26 11:21:34;;;;;;;9.60;3.30;;;;;;;21.42;41.22;100738.94;4252281;28;20231;-72
2023/05/26 11:24:02;;;;;;;10.87;3.33;;;;;;;21.46;41.82;100751.25;4252341;28;20230;-72